< < Back
Terminal Aerodrome Forecast


Current Version              Previous Versions:   1  2  3  4  5  6  7  8  9  

Terminal Aerodrome Forecast

277
FTUS42 KTAE 011124
TAFTLH
TAF
KTLH 011124Z 0112/0212 VRB04KT P6SM -SHRA SCT010 BKN060
      TEMPO 0112/0114 5SM SHRA BKN010
     FM011600 20010KT P6SM VCTS BKN030CB
     FM011900 22008KT 3SM TSRA BR BKN030CB BKN100
     FM012300 17004KT P6SM -SHRA VCTS BKN050CB BKN100
     FM020300 VRB03KT P6SM VCSH SCT050 BKN100=



Latest METAR

854
SAUS80 KWBC 020400 RRA
MTRTLH
METAR KTLH 020353Z AUTO 04005KT 10SM SCT009 27/25 A2986 RMK AO2 SLP111
T02670250 $


USA.gov is the U.S. government's official web portal to all federal, state and local government web resources and services.